Duffield, VA (24244)

10:56 PM EDT on April 20, 2015 (GMT -0400)
west carters valley | | Change Station
CLOSE
Current Station
Personal Weather Station
Location: Church Hill, TN
Elevation: 1453 ft
Nearby Weather Stations

Elev 1453 ft 36.57 °N, 82.69 °W | Updated 8 minutes ago

Overcast
Overcast
52.9 °F
Feels Like 52.9 °F
N
3.1
Wind Variable Wind from WSW

Today
High -- | Low -- °F
--% Chance of Precip.
Yesterday
High -- | Low -- °F
Precip. -- in
6:51 AM 8:09 PM
Waxing Crescent, 7% visible
Pressure 29.84 in
Visibility 10.0 miles
Clouds Overcast 6000 ft
Dew Point 47 °F
Humidity 80%
Rainfall 0.13 in
Snow Depth Not available.
UV 0 out of 12
Pollen 8.20 out of 12
Air Quality Not available.
Flu Activity Local Activity
METAR K0VG 210235Z AUTO 28004KT 10SM -RA OVC060 11/08 A2984 RMK AO2

More Conditions Fewer Conditions

Pressure 29.84 in
Visibility 10.0 miles
Clouds Overcast 6000 ft
Dew Point 47 °F
Humidity 80%
Rainfall 0.13 in
Snow Depth Not available.
UV 0 out of 12
Pollen 8.20 out of 12
Air Quality Not available.
Flu Activity Local Activity
METAR K0VG 210235Z AUTO 28004KT 10SM -RA OVC060 11/08 A2984 RMK AO2

More Conditions Fewer Conditions

10-Day Weather Forecast

Almanac

Astronomy

Apr. 20, 2015 Rise Set
Actual Time
Civil Twilight
Nautical Twilight
Astronomical Twilight
Moon
Length of Visible Light
Length of Day
Tomorrow will be .
, % of the Moon is Illuminated

Today's Extremes

State Highs State Lows

Community

WunderPhotos

Upload Photos

1,815,283 photos uploaded!

WunderBlogs® & News

Nearby

Air Quality

  Air Quality AQ Index Pollutant
Not available.

Snow Depth

Station Depth Elevation

Earthquake Activity

City Distance Mag. Time & Date
Minimum magnitude displayed is 2.5.

Coastal Water Temperatures

Place Temperature

Stations

Nearby Weather Stations

Station Location Temp. Windchill Dew Point Humidity Wind Precip. Elev Updated Type